sensor_id;sensor_type;location;lat;lon;timestamp;P1;durP1;ratioP1;P2;durP2;ratioP2
11039;SDS011;5573;49.592;8.662;2024-03-02T00:00:40;29.10;;;27.57;;
11039;SDS011;5573;49.592;8.662;2024-03-02T00:03:08;28.93;;;27.43;;
11039;SDS011;5573;49.592;8.662;2024-03-02T00:05:38;29.87;;;28.23;;
11039;SDS011;5573;49.592;8.662;2024-03-02T00:08:05;29.77;;;28.23;;
11039;SDS011;5573;49.592;8.662;2024-03-02T00:10:36;30.90;;;29.23;;
11039;SDS011;5573;49.592;8.662;2024-03-02T00:13:06;34.57;;;32.60;;
11039;SDS011;5573;49.592;8.662;2024-03-02T00:15:42;34.23;;;32.37;;
11039;SDS011;5573;49.592;8.662;2024-03-02T00:18:14;32.73;;;31.00;;
11039;SDS011;5573;49.592;8.662;2024-03-02T00:20:47;32.27;;;30.60;;
11039;SDS011;5573;49.592;8.662;2024-03-02T00:23:16;32.57;;;30.77;;
11039;SDS011;5573;49.592;8.662;2024-03-02T00:25:47;31.10;;;29.47;;
11039;SDS011;5573;49.592;8.662;2024-03-02T00:28:19;31.57;;;29.90;;
11039;SDS011;5573;49.592;8.662;2024-03-02T00:30:52;31.03;;;29.30;;
11039;SDS011;5573;49.592;8.662;2024-03-02T00:33:23;33.30;;;31.53;;
11039;SDS011;5573;49.592;8.662;2024-03-02T00:35:56;30.90;;;29.30;;
11039;SDS011;5573;49.592;8.662;2024-03-02T00:38:26;29.33;;;27.77;;
11039;SDS011;5573;49.592;8.662;2024-03-02T00:40:55;28.73;;;27.27;;
11039;SDS011;5573;49.592;8.662;2024-03-02T00:46:17;31.67;;;29.87;;
11039;SDS011;5573;49.592;8.662;2024-03-02T00:48:53;28.67;;;27.13;;
11039;SDS011;5573;49.592;8.662;2024-03-02T00:51:24;28.90;;;27.40;;
11039;SDS011;5573;49.592;8.662;2024-03-02T00:53:53;31.53;;;29.83;;
11039;SDS011;5573;49.592;8.662;2024-03-02T00:56:27;30.23;;;28.50;;
11039;SDS011;5573;49.592;8.662;2024-03-02T00:58:55;31.50;;;29.67;;
11039;SDS011;5573;49.592;8.662;2024-03-02T01:01:23;28.07;;;26.57;;
11039;SDS011;5573;49.592;8.662;2024-03-02T01:03:51;27.27;;;25.80;;
11039;SDS011;5573;49.592;8.662;2024-03-02T01:06:20;26.73;;;25.33;;
11039;SDS011;5573;49.592;8.662;2024-03-02T01:08:50;26.63;;;25.20;;
11039;SDS011;5573;49.592;8.662;2024-03-02T01:11:19;26.30;;;24.93;;
11039;SDS011;5573;49.592;8.662;2024-03-02T01:13:49;27.67;;;26.10;;
11039;SDS011;5573;49.592;8.662;2024-03-02T01:16:17;25.37;;;24.07;;
11039;SDS011;5573;49.592;8.662;2024-03-02T01:18:45;26.37;;;24.97;;
11039;SDS011;5573;49.592;8.662;2024-03-02T01:21:14;26.33;;;24.93;;
11039;SDS011;5573;49.592;8.662;2024-03-02T01:23:42;30.27;;;28.50;;
11039;SDS011;5573;49.592;8.662;2024-03-02T01:26:11;27.77;;;26.33;;
11039;SDS011;5573;49.592;8.662;2024-03-02T01:28:39;27.83;;;26.27;;
11039;SDS011;5573;49.592;8.662;2024-03-02T01:31:07;29.67;;;27.97;;
11039;SDS011;5573;49.592;8.662;2024-03-02T01:33:35;27.03;;;25.60;;
11039;SDS011;5573;49.592;8.662;2024-03-02T01:36:03;27.00;;;25.63;;
11039;SDS011;5573;49.592;8.662;2024-03-02T01:38:31;27.17;;;25.67;;
11039;SDS011;5573;49.592;8.662;2024-03-02T01:41:00;28.13;;;26.63;;
11039;SDS011;5573;49.592;8.662;2024-03-02T01:43:30;25.33;;;24.00;;
11039;SDS011;5573;49.592;8.662;2024-03-02T01:45:58;23.20;;;21.97;;
11039;SDS011;5573;49.592;8.662;2024-03-02T01:48:25;26.40;;;25.00;;
11039;SDS011;5573;49.592;8.662;2024-03-02T01:50:53;25.90;;;24.60;;
11039;SDS011;5573;49.592;8.662;2024-03-02T01:53:21;25.77;;;24.33;;
11039;SDS011;5573;49.592;8.662;2024-03-02T01:55:49;27.27;;;25.73;;
11039;SDS011;5573;49.592;8.662;2024-03-02T01:58:17;27.40;;;25.97;;
11039;SDS011;5573;49.592;8.662;2024-03-02T02:00:46;27.50;;;26.10;;
11039;SDS011;5573;49.592;8.662;2024-03-02T02:03:14;27.87;;;26.43;;
11039;SDS011;5573;49.592;8.662;2024-03-02T02:05:42;26.37;;;24.87;;
11039;SDS011;5573;49.592;8.662;2024-03-02T02:08:10;27.87;;;26.30;;
11039;SDS011;5573;49.592;8.662;2024-03-02T02:10:38;27.07;;;25.67;;
11039;SDS011;5573;49.592;8.662;2024-03-02T02:13:06;27.03;;;25.60;;
11039;SDS011;5573;49.592;8.662;2024-03-02T02:15:35;27.57;;;26.10;;
11039;SDS011;5573;49.592;8.662;2024-03-02T02:18:04;26.87;;;25.40;;
11039;SDS011;5573;49.592;8.662;2024-03-02T02:20:32;27.77;;;26.37;;
11039;SDS011;5573;49.592;8.662;2024-03-02T02:23:02;30.17;;;28.60;;
11039;SDS011;5573;49.592;8.662;2024-03-02T02:25:31;28.00;;;26.50;;
11039;SDS011;5573;49.592;8.662;2024-03-02T02:28:01;27.10;;;25.70;;
11039;SDS011;5573;49.592;8.662;2024-03-02T02:30:29;28.07;;;26.53;;
11039;SDS011;5573;49.592;8.662;2024-03-02T02:32:58;27.67;;;26.17;;
11039;SDS011;5573;49.592;8.662;2024-03-02T02:35:26;27.10;;;25.70;;
11039;SDS011;5573;49.592;8.662;2024-03-02T02:37:56;24.80;;;23.50;;
11039;SDS011;5573;49.592;8.662;2024-03-02T02:40:26;25.50;;;24.10;;
11039;SDS011;5573;49.592;8.662;2024-03-02T02:42:56;27.47;;;25.97;;
11039;SDS011;5573;49.592;8.662;2024-03-02T02:45:23;26.73;;;25.33;;
11039;SDS011;5573;49.592;8.662;2024-03-02T02:47:51;28.50;;;26.80;;
11039;SDS011;5573;49.592;8.662;2024-03-02T02:50:19;28.67;;;27.17;;
11039;SDS011;5573;49.592;8.662;2024-03-02T02:52:47;28.13;;;26.67;;
11039;SDS011;5573;49.592;8.662;2024-03-02T02:55:15;27.80;;;26.30;;
11039;SDS011;5573;49.592;8.662;2024-03-02T02:57:44;30.03;;;28.47;;
11039;SDS011;5573;49.592;8.662;2024-03-02T03:00:13;27.33;;;25.83;;
11039;SDS011;5573;49.592;8.662;2024-03-02T03:02:45;28.93;;;27.37;;
11039;SDS011;5573;49.592;8.662;2024-03-02T03:05:15;29.97;;;28.43;;
11039;SDS011;5573;49.592;8.662;2024-03-02T03:07:43;30.80;;;29.13;;
11039;SDS011;5573;49.592;8.662;2024-03-02T03:10:11;30.17;;;28.57;;
11039;SDS011;5573;49.592;8.662;2024-03-02T03:12:41;29.50;;;28.00;;
11039;SDS011;5573;49.592;8.662;2024-03-02T03:15:12;28.43;;;26.90;;
11039;SDS011;5573;49.592;8.662;2024-03-02T03:17:40;29.10;;;27.60;;
11039;SDS011;5573;49.592;8.662;2024-03-02T03:20:08;27.57;;;26.07;;
11039;SDS011;5573;49.592;8.662;2024-03-02T03:22:37;25.87;;;24.37;;
11039;SDS011;5573;49.592;8.662;2024-03-02T03:25:05;28.93;;;27.33;;
11039;SDS011;5573;49.592;8.662;2024-03-02T03:27:34;26.97;;;25.50;;
11039;SDS011;5573;49.592;8.662;2024-03-02T03:30:03;27.90;;;26.40;;
11039;SDS011;5573;49.592;8.662;2024-03-02T03:32:33;25.80;;;24.47;;
11039;SDS011;5573;49.592;8.662;2024-03-02T03:35:02;26.20;;;24.87;;
11039;SDS011;5573;49.592;8.662;2024-03-02T03:37:31;26.20;;;24.83;;
11039;SDS011;5573;49.592;8.662;2024-03-02T03:40:01;29.70;;;28.10;;
11039;SDS011;5573;49.592;8.662;2024-03-02T03:42:33;26.20;;;24.90;;
11039;SDS011;5573;49.592;8.662;2024-03-02T03:45:01;28.07;;;26.57;;
11039;SDS011;5573;49.592;8.662;2024-03-02T03:47:29;28.00;;;26.57;;
11039;SDS011;5573;49.592;8.662;2024-03-02T03:50:00;26.03;;;24.70;;
11039;SDS011;5573;49.592;8.662;2024-03-02T03:52:28;30.97;;;29.33;;
11039;SDS011;5573;49.592;8.662;2024-03-02T03:54:55;27.83;;;26.33;;
11039;SDS011;5573;49.592;8.662;2024-03-02T03:57:23;28.87;;;27.40;;
11039;SDS011;5573;49.592;8.662;2024-03-02T03:59:51;29.47;;;27.87;;
11039;SDS011;5573;49.592;8.662;2024-03-02T04:02:19;30.97;;;29.37;;
11039;SDS011;5573;49.592;8.662;2024-03-02T04:04:47;30.53;;;28.93;;
11039;SDS011;5573;49.592;8.662;2024-03-02T04:07:15;29.60;;;28.07;;
11039;SDS011;5573;49.592;8.662;2024-03-02T04:09:44;29.80;;;28.20;;
11039;SDS011;5573;49.592;8.662;2024-03-02T04:12:11;31.20;;;29.60;;
11039;SDS011;5573;49.592;8.662;2024-03-02T04:14:39;28.17;;;26.70;;
11039;SDS011;5573;49.592;8.662;2024-03-02T04:17:09;32.97;;;31.27;;
11039;SDS011;5573;49.592;8.662;2024-03-02T04:19:36;31.57;;;29.93;;
11039;SDS011;5573;49.592;8.662;2024-03-02T04:22:04;30.83;;;29.13;;
11039;SDS011;5573;49.592;8.662;2024-03-02T04:24:45;29.90;;;28.37;;
11039;SDS011;5573;49.592;8.662;2024-03-02T04:27:13;30.00;;;28.40;;
11039;SDS011;5573;49.592;8.662;2024-03-02T04:29:41;32.07;;;30.33;;
11039;SDS011;5573;49.592;8.662;2024-03-02T04:32:08;28.20;;;26.73;;
11039;SDS011;5573;49.592;8.662;2024-03-02T04:34:36;27.37;;;25.97;;
11039;SDS011;5573;49.592;8.662;2024-03-02T04:37:04;29.27;;;27.67;;
11039;SDS011;5573;49.592;8.662;2024-03-02T04:39:34;29.30;;;27.73;;
11039;SDS011;5573;49.592;8.662;2024-03-02T04:42:03;27.47;;;26.03;;
11039;SDS011;5573;49.592;8.662;2024-03-02T04:44:31;27.10;;;25.70;;
11039;SDS011;5573;49.592;8.662;2024-03-02T04:46:59;27.40;;;26.00;;
11039;SDS011;5573;49.592;8.662;2024-03-02T04:49:27;25.07;;;23.67;;
11039;SDS011;5573;49.592;8.662;2024-03-02T04:51:55;27.67;;;26.17;;
11039;SDS011;5573;49.592;8.662;2024-03-02T04:54:23;24.23;;;23.03;;
11039;SDS011;5573;49.592;8.662;2024-03-02T04:56:51;25.23;;;23.93;;
11039;SDS011;5573;49.592;8.662;2024-03-02T04:59:20;26.57;;;25.20;;
11039;SDS011;5573;49.592;8.662;2024-03-02T05:01:48;25.17;;;23.90;;
11039;SDS011;5573;49.592;8.662;2024-03-02T05:04:15;25.17;;;23.87;;
11039;SDS011;5573;49.592;8.662;2024-03-02T05:06:43;26.53;;;25.17;;
11039;SDS011;5573;49.592;8.662;2024-03-02T05:09:17;27.63;;;26.23;;
11039;SDS011;5573;49.592;8.662;2024-03-02T05:11:45;25.03;;;23.73;;
11039;SDS011;5573;49.592;8.662;2024-03-02T05:14:31;25.20;;;23.90;;
11039;SDS011;5573;49.592;8.662;2024-03-02T05:16:58;23.13;;;21.97;;
11039;SDS011;5573;49.592;8.662;2024-03-02T05:19:26;27.10;;;25.70;;
11039;SDS011;5573;49.592;8.662;2024-03-02T05:21:54;26.87;;;25.47;;
11039;SDS011;5573;49.592;8.662;2024-03-02T05:24:21;26.93;;;25.33;;
11039;SDS011;5573;49.592;8.662;2024-03-02T05:26:50;25.20;;;23.90;;
11039;SDS011;5573;49.592;8.662;2024-03-02T05:29:17;27.07;;;25.60;;
11039;SDS011;5573;49.592;8.662;2024-03-02T05:31:46;22.73;;;21.53;;
11039;SDS011;5573;49.592;8.662;2024-03-02T05:34:14;25.53;;;24.13;;
11039;SDS011;5573;49.592;8.662;2024-03-02T05:36:42;26.20;;;24.83;;
11039;SDS011;5573;49.592;8.662;2024-03-02T05:39:10;23.70;;;22.47;;
11039;SDS011;5573;49.592;8.662;2024-03-02T05:41:37;25.60;;;24.30;;
11039;SDS011;5573;49.592;8.662;2024-03-02T05:44:05;23.43;;;22.23;;
11039;SDS011;5573;49.592;8.662;2024-03-02T05:46:33;24.13;;;22.93;;
11039;SDS011;5573;49.592;8.662;2024-03-02T05:49:05;23.00;;;21.80;;
11039;SDS011;5573;49.592;8.662;2024-03-02T05:51:34;22.13;;;21.03;;
11039;SDS011;5573;49.592;8.662;2024-03-02T05:54:02;22.43;;;21.30;;
11039;SDS011;5573;49.592;8.662;2024-03-02T05:56:30;24.03;;;22.63;;
11039;SDS011;5573;49.592;8.662;2024-03-02T05:58:58;22.10;;;21.00;;
11039;SDS011;5573;49.592;8.662;2024-03-02T06:01:38;21.33;;;20.03;;
11039;SDS011;5573;49.592;8.662;2024-03-02T06:04:08;22.73;;;21.53;;
11039;SDS011;5573;49.592;8.662;2024-03-02T06:06:37;22.23;;;21.03;;
11039;SDS011;5573;49.592;8.662;2024-03-02T06:09:06;20.97;;;19.87;;
11039;SDS011;5573;49.592;8.662;2024-03-02T06:11:34;21.90;;;20.73;;
11039;SDS011;5573;49.592;8.662;2024-03-02T06:14:02;22.70;;;21.53;;
11039;SDS011;5573;49.592;8.662;2024-03-02T06:16:30;22.00;;;20.87;;
11039;SDS011;5573;49.592;8.662;2024-03-02T06:18:58;24.73;;;23.47;;
11039;SDS011;5573;49.592;8.662;2024-03-02T06:21:28;25.27;;;23.97;;
11039;SDS011;5573;49.592;8.662;2024-03-02T06:23:55;23.83;;;22.60;;
11039;SDS011;5573;49.592;8.662;2024-03-02T06:26:23;24.83;;;23.57;;
11039;SDS011;5573;49.592;8.662;2024-03-02T06:28:51;26.67;;;25.33;;
11039;SDS011;5573;49.592;8.662;2024-03-02T06:31:19;25.93;;;24.60;;
11039;SDS011;5573;49.592;8.662;2024-03-02T06:33:47;25.73;;;24.40;;
11039;SDS011;5573;49.592;8.662;2024-03-02T06:36:15;24.17;;;22.93;;
11039;SDS011;5573;49.592;8.662;2024-03-02T06:38:44;23.27;;;22.00;;
11039;SDS011;5573;49.592;8.662;2024-03-02T06:41:12;25.00;;;23.60;;
11039;SDS011;5573;49.592;8.662;2024-03-02T06:43:40;21.20;;;20.13;;
11039;SDS011;5573;49.592;8.662;2024-03-02T06:46:08;21.07;;;19.93;;
11039;SDS011;5573;49.592;8.662;2024-03-02T06:48:36;21.00;;;19.90;;
11039;SDS011;5573;49.592;8.662;2024-03-02T06:51:03;23.53;;;22.30;;
11039;SDS011;5573;49.592;8.662;2024-03-02T06:53:31;24.10;;;22.87;;
11039;SDS011;5573;49.592;8.662;2024-03-02T06:56:01;23.50;;;22.30;;
11039;SDS011;5573;49.592;8.662;2024-03-02T06:58:29;23.13;;;21.93;;
11039;SDS011;5573;49.592;8.662;2024-03-02T07:00:57;25.90;;;24.53;;
11039;SDS011;5573;49.592;8.662;2024-03-02T07:03:26;25.13;;;23.83;;
11039;SDS011;5573;49.592;8.662;2024-03-02T07:05:54;26.73;;;25.33;;
11039;SDS011;5573;49.592;8.662;2024-03-02T07:08:22;25.00;;;23.70;;
11039;SDS011;5573;49.592;8.662;2024-03-02T07:10:49;24.83;;;23.57;;
11039;SDS011;5573;49.592;8.662;2024-03-02T07:13:18;24.90;;;23.60;;
11039;SDS011;5573;49.592;8.662;2024-03-02T07:15:46;22.67;;;21.47;;
11039;SDS011;5573;49.592;8.662;2024-03-02T07:18:37;22.20;;;21.03;;
11039;SDS011;5573;49.592;8.662;2024-03-02T07:21:08;23.40;;;22.20;;
11039;SDS011;5573;49.592;8.662;2024-03-02T07:23:36;24.50;;;23.20;;
11039;SDS011;5573;49.592;8.662;2024-03-02T07:26:04;24.43;;;23.17;;
11039;SDS011;5573;49.592;8.662;2024-03-02T07:28:36;24.10;;;22.90;;
11039;SDS011;5573;49.592;8.662;2024-03-02T07:31:04;26.77;;;25.23;;
11039;SDS011;5573;49.592;8.662;2024-03-02T07:33:32;25.43;;;24.10;;
11039;SDS011;5573;49.592;8.662;2024-03-02T07:36:00;25.90;;;24.50;;
11039;SDS011;5573;49.592;8.662;2024-03-02T07:38:30;27.03;;;25.57;;
11039;SDS011;5573;49.592;8.662;2024-03-02T07:41:00;27.53;;;26.07;;
11039;SDS011;5573;49.592;8.662;2024-03-02T07:43:28;25.53;;;24.07;;
11039;SDS011;5573;49.592;8.662;2024-03-02T07:45:57;27.00;;;25.60;;
11039;SDS011;5573;49.592;8.662;2024-03-02T07:48:25;26.30;;;24.87;;
11039;SDS011;5573;49.592;8.662;2024-03-02T07:50:53;26.60;;;25.13;;
11039;SDS011;5573;49.592;8.662;2024-03-02T07:53:21;26.03;;;24.63;;
11039;SDS011;5573;49.592;8.662;2024-03-02T07:55:49;23.80;;;22.50;;
11039;SDS011;5573;49.592;8.662;2024-03-02T07:58:16;25.73;;;24.33;;
11039;SDS011;5573;49.592;8.662;2024-03-02T08:00:46;26.43;;;25.03;;
11039;SDS011;5573;49.592;8.662;2024-03-02T08:03:18;29.87;;;28.30;;
11039;SDS011;5573;49.592;8.662;2024-03-02T08:05:46;29.40;;;27.87;;
11039;SDS011;5573;49.592;8.662;2024-03-02T08:08:13;30.40;;;28.83;;
11039;SDS011;5573;49.592;8.662;2024-03-02T08:10:41;30.50;;;28.93;;
11039;SDS011;5573;49.592;8.662;2024-03-02T08:13:09;31.23;;;29.58;;
11039;SDS011;5573;49.592;8.662;2024-03-02T08:15:37;31.98;;;30.08;;
11039;SDS011;5573;49.592;8.662;2024-03-02T08:18:05;33.30;;;31.50;;
11039;SDS011;5573;49.592;8.662;2024-03-02T08:20:34;34.20;;;32.38;;
11039;SDS011;5573;49.592;8.662;2024-03-02T08:23:02;36.88;;;34.92;;
11039;SDS011;5573;49.592;8.662;2024-03-02T08:25:30;38.50;;;36.40;;
11039;SDS011;5573;49.592;8.662;2024-03-02T08:27:58;35.63;;;33.60;;
11039;SDS011;5573;49.592;8.662;2024-03-02T08:30:26;37.20;;;35.15;;
11039;SDS011;5573;49.592;8.662;2024-03-02T08:32:54;37.22;;;35.25;;
11039;SDS011;5573;49.592;8.662;2024-03-02T08:35:22;33.50;;;31.60;;
11039;SDS011;5573;49.592;8.662;2024-03-02T08:37:51;36.63;;;34.65;;
11039;SDS011;5573;49.592;8.662;2024-03-02T08:40:19;37.25;;;35.15;;
11039;SDS011;5573;49.592;8.662;2024-03-02T08:42:47;37.03;;;35.00;;
11039;SDS011;5573;49.592;8.662;2024-03-02T08:45:14;40.55;;;38.30;;
11039;SDS011;5573;49.592;8.662;2024-03-02T08:47:42;39.65;;;37.45;;
11039;SDS011;5573;49.592;8.662;2024-03-02T08:50:11;42.03;;;39.72;;
11039;SDS011;5573;49.592;8.662;2024-03-02T08:52:38;41.03;;;38.78;;
11039;SDS011;5573;49.592;8.662;2024-03-02T08:55:08;45.17;;;42.70;;
11039;SDS011;5573;49.592;8.662;2024-03-02T08:57:37;49.03;;;46.40;;
11039;SDS011;5573;49.592;8.662;2024-03-02T09:00:06;46.28;;;43.80;;
11039;SDS011;5573;49.592;8.662;2024-03-02T09:02:34;53.35;;;50.42;;
11039;SDS011;5573;49.592;8.662;2024-03-02T09:05:02;53.08;;;50.22;;
11039;SDS011;5573;49.592;8.662;2024-03-02T09:07:31;54.53;;;51.50;;
11039;SDS011;5573;49.592;8.662;2024-03-02T09:09:59;59.30;;;56.15;;
11039;SDS011;5573;49.592;8.662;2024-03-02T09:12:28;56.83;;;53.40;;
11039;SDS011;5573;49.592;8.662;2024-03-02T09:14:56;54.25;;;51.28;;
11039;SDS011;5573;49.592;8.662;2024-03-02T09:17:24;53.15;;;50.25;;
11039;SDS011;5573;49.592;8.662;2024-03-02T09:19:51;51.17;;;48.28;;
11039;SDS011;5573;49.592;8.662;2024-03-02T09:22:19;54.72;;;51.58;;
11039;SDS011;5573;49.592;8.662;2024-03-02T09:24:47;49.83;;;47.17;;
11039;SDS011;5573;49.592;8.662;2024-03-02T09:27:15;54.17;;;51.15;;
11039;SDS011;5573;49.592;8.662;2024-03-02T09:29:44;53.70;;;50.67;;
11039;SDS011;5573;49.592;8.662;2024-03-02T09:32:12;51.97;;;49.17;;
11039;SDS011;5573;49.592;8.662;2024-03-02T09:34:41;53.53;;;50.53;;
11039;SDS011;5573;49.592;8.662;2024-03-02T09:37:09;52.83;;;50.00;;
11039;SDS011;5573;49.592;8.662;2024-03-02T09:39:37;50.38;;;47.63;;
11039;SDS011;5573;49.592;8.662;2024-03-02T09:42:05;56.53;;;53.42;;
11039;SDS011;5573;49.592;8.662;2024-03-02T09:44:33;58.47;;;55.35;;
11039;SDS011;5573;49.592;8.662;2024-03-02T09:47:02;52.85;;;49.85;;
11039;SDS011;5573;49.592;8.662;2024-03-02T09:49:30;47.78;;;45.03;;
11039;SDS011;5573;49.592;8.662;2024-03-02T09:51:58;45.25;;;42.58;;
11039;SDS011;5573;49.592;8.662;2024-03-02T09:54:26;51.88;;;49.03;;
11039;SDS011;5573;49.592;8.662;2024-03-02T09:56:55;49.38;;;46.60;;
11039;SDS011;5573;49.592;8.662;2024-03-02T09:59:22;49.67;;;46.80;;
11039;SDS011;5573;49.592;8.662;2024-03-02T10:01:57;54.03;;;51.13;;
11039;SDS011;5573;49.592;8.662;2024-03-02T10:04:27;63.83;;;60.30;;
11039;SDS011;5573;49.592;8.662;2024-03-02T10:09:44;56.33;;;53.15;;
11039;SDS011;5573;49.592;8.662;2024-03-02T10:12:14;57.50;;;54.38;;
11039;SDS011;5573;49.592;8.662;2024-03-02T10:14:42;54.53;;;51.55;;
11039;SDS011;5573;49.592;8.662;2024-03-02T10:17:11;49.28;;;46.55;;
11039;SDS011;5573;49.592;8.662;2024-03-02T10:19:41;49.47;;;46.70;;
11039;SDS011;5573;49.592;8.662;2024-03-02T10:22:09;47.50;;;44.85;;
11039;SDS011;5573;49.592;8.662;2024-03-02T10:24:38;49.50;;;46.75;;
11039;SDS011;5573;49.592;8.662;2024-03-02T10:27:08;48.40;;;45.80;;
11039;SDS011;5573;49.592;8.662;2024-03-02T10:29:40;53.67;;;50.42;;
11039;SDS011;5573;49.592;8.662;2024-03-02T10:32:08;55.55;;;52.47;;
11039;SDS011;5573;49.592;8.662;2024-03-02T10:34:39;52.92;;;50.05;;
11039;SDS011;5573;49.592;8.662;2024-03-02T10:37:10;51.85;;;48.97;;
11039;SDS011;5573;49.592;8.662;2024-03-02T10:39:39;52.63;;;49.67;;
11039;SDS011;5573;49.592;8.662;2024-03-02T10:42:07;52.95;;;50.00;;
11039;SDS011;5573;49.592;8.662;2024-03-02T10:44:36;60.80;;;57.42;;
11039;SDS011;5573;49.592;8.662;2024-03-02T10:47:04;58.97;;;55.72;;
11039;SDS011;5573;49.592;8.662;2024-03-02T10:49:32;59.25;;;55.95;;
11039;SDS011;5573;49.592;8.662;2024-03-02T10:52:01;68.38;;;64.50;;
11039;SDS011;5573;49.592;8.662;2024-03-02T10:54:30;66.60;;;62.80;;
11039;SDS011;5573;49.592;8.662;2024-03-02T10:57:04;63.72;;;60.15;;
11039;SDS011;5573;49.592;8.662;2024-03-02T10:59:33;72.40;;;68.20;;
11039;SDS011;5573;49.592;8.662;2024-03-02T11:02:03;71.00;;;66.90;;
11039;SDS011;5573;49.592;8.662;2024-03-02T11:04:34;80.40;;;75.90;;
11039;SDS011;5573;49.592;8.662;2024-03-02T11:07:04;79.25;;;74.85;;
11039;SDS011;5573;49.592;8.662;2024-03-02T11:09:35;78.13;;;73.63;;
11039;SDS011;5573;49.592;8.662;2024-03-02T11:12:08;84.53;;;79.90;;
11039;SDS011;5573;49.592;8.662;2024-03-02T11:14:40;79.78;;;75.28;;
11039;SDS011;5573;49.592;8.662;2024-03-02T11:17:09;81.65;;;77.13;;
11039;SDS011;5573;49.592;8.662;2024-03-02T11:19:39;84.20;;;79.50;;
11039;SDS011;5573;49.592;8.662;2024-03-02T11:22:08;90.57;;;85.57;;
11039;SDS011;5573;49.592;8.662;2024-03-02T11:24:38;82.80;;;78.30;;
11039;SDS011;5573;49.592;8.662;2024-03-02T11:27:06;79.50;;;75.20;;
11039;SDS011;5573;49.592;8.662;2024-03-02T11:29:44;82.22;;;77.88;;
11039;SDS011;5573;49.592;8.662;2024-03-02T11:32:16;72.93;;;69.05;;
11039;SDS011;5573;49.592;8.662;2024-03-02T11:34:45;72.00;;;68.15;;
11039;SDS011;5573;49.592;8.662;2024-03-02T11:37:16;63.45;;;60.15;;
11039;SDS011;5573;49.592;8.662;2024-03-02T11:39:46;65.25;;;61.85;;
11039;SDS011;5573;49.592;8.662;2024-03-02T11:42:16;63.20;;;59.88;;
11039;SDS011;5573;49.592;8.662;2024-03-02T11:44:45;66.88;;;63.30;;
11039;SDS011;5573;49.592;8.662;2024-03-02T11:47:14;66.00;;;62.55;;
11039;SDS011;5573;49.592;8.662;2024-03-02T11:49:43;64.63;;;61.20;;
11039;SDS011;5573;49.592;8.662;2024-03-02T11:52:13;65.72;;;62.25;;
11039;SDS011;5573;49.592;8.662;2024-03-02T11:54:42;60.88;;;57.60;;
11039;SDS011;5573;49.592;8.662;2024-03-02T11:57:15;65.95;;;62.47;;
11039;SDS011;5573;49.592;8.662;2024-03-02T11:59:44;66.47;;;62.97;;
11039;SDS011;5573;49.592;8.662;2024-03-02T12:02:14;64.00;;;60.67;;
11039;SDS011;5573;49.592;8.662;2024-03-02T12:04:44;70.03;;;66.30;;
11039;SDS011;5573;49.592;8.662;2024-03-02T12:07:13;65.97;;;62.53;;
11039;SDS011;5573;49.592;8.662;2024-03-02T12:09:46;70.35;;;66.68;;
11039;SDS011;5573;49.592;8.662;2024-03-02T12:12:15;74.50;;;70.57;;
11039;SDS011;5573;49.592;8.662;2024-03-02T12:14:49;72.90;;;69.10;;
11039;SDS011;5573;49.592;8.662;2024-03-02T12:17:18;76.90;;;72.88;;
11039;SDS011;5573;49.592;8.662;2024-03-02T12:19:46;71.78;;;67.95;;
11039;SDS011;5573;49.592;8.662;2024-03-02T12:22:13;73.50;;;69.65;;
11039;SDS011;5573;49.592;8.662;2024-03-02T12:24:42;75.18;;;71.30;;
11039;SDS011;5573;49.592;8.662;2024-03-02T12:27:12;78.63;;;74.53;;
11039;SDS011;5573;49.592;8.662;2024-03-02T12:29:41;72.90;;;69.07;;
11039;SDS011;5573;49.592;8.662;2024-03-02T12:32:09;68.72;;;65.15;;
11039;SDS011;5573;49.592;8.662;2024-03-02T12:34:38;72.60;;;68.78;;
11039;SDS011;5573;49.592;8.662;2024-03-02T12:37:06;70.53;;;66.82;;
11039;SDS011;5573;49.592;8.662;2024-03-02T12:39:34;70.40;;;66.68;;
11039;SDS011;5573;49.592;8.662;2024-03-02T12:42:02;77.15;;;73.20;;
11039;SDS011;5573;49.592;8.662;2024-03-02T12:44:30;74.13;;;70.22;;
11039;SDS011;5573;49.592;8.662;2024-03-02T12:46:59;76.00;;;72.03;;
11039;SDS011;5573;49.592;8.662;2024-03-02T12:49:27;83.05;;;78.70;;
11039;SDS011;5573;49.592;8.662;2024-03-02T12:51:57;78.57;;;74.45;;
11039;SDS011;5573;49.592;8.662;2024-03-02T12:54:25;77.90;;;73.78;;
11039;SDS011;5573;49.592;8.662;2024-03-02T12:56:53;75.78;;;71.68;;
11039;SDS011;5573;49.592;8.662;2024-03-02T12:59:23;73.07;;;69.28;;
11039;SDS011;5573;49.592;8.662;2024-03-02T13:01:53;74.68;;;70.80;;
11039;SDS011;5573;49.592;8.662;2024-03-02T13:04:25;74.25;;;70.38;;
11039;SDS011;5573;49.592;8.662;2024-03-02T13:06:55;74.95;;;71.07;;
11039;SDS011;5573;49.592;8.662;2024-03-02T13:09:24;74.68;;;70.75;;
11039;SDS011;5573;49.592;8.662;2024-03-02T13:11:53;77.55;;;73.47;;
11039;SDS011;5573;49.592;8.662;2024-03-02T13:14:23;79.57;;;75.40;;
11039;SDS011;5573;49.592;8.662;2024-03-02T13:16:51;77.78;;;73.72;;
11039;SDS011;5573;49.592;8.662;2024-03-02T13:19:19;83.38;;;78.97;;
11039;SDS011;5573;49.592;8.662;2024-03-02T13:21:48;81.90;;;77.63;;
11039;SDS011;5573;49.592;8.662;2024-03-02T13:24:18;80.50;;;76.32;;
11039;SDS011;5573;49.592;8.662;2024-03-02T13:26:46;82.75;;;78.50;;
11039;SDS011;5573;49.592;8.662;2024-03-02T13:29:14;75.63;;;71.70;;
11039;SDS011;5573;49.592;8.662;2024-03-02T13:31:42;81.43;;;77.15;;
11039;SDS011;5573;49.592;8.662;2024-03-02T13:34:10;86.40;;;81.97;;
11039;SDS011;5573;49.592;8.662;2024-03-02T13:36:38;81.50;;;77.22;;
11039;SDS011;5573;49.592;8.662;2024-03-02T13:39:08;83.82;;;79.50;;
11039;SDS011;5573;49.592;8.662;2024-03-02T13:41:36;83.95;;;79.63;;
11039;SDS011;5573;49.592;8.662;2024-03-02T13:44:04;79.47;;;75.38;;
11039;SDS011;5573;49.592;8.662;2024-03-02T13:46:32;85.25;;;80.80;;
11039;SDS011;5573;49.592;8.662;2024-03-02T13:49:00;85.97;;;81.53;;
11039;SDS011;5573;49.592;8.662;2024-03-02T13:51:28;92.57;;;87.80;;
11039;SDS011;5573;49.592;8.662;2024-03-02T13:53:56;84.50;;;80.15;;
11039;SDS011;5573;49.592;8.662;2024-03-02T13:56:25;86.13;;;81.65;;
11039;SDS011;5573;49.592;8.662;2024-03-02T13:58:53;85.45;;;81.03;;
11039;SDS011;5573;49.592;8.662;2024-03-02T14:01:20;86.65;;;82.13;;
11039;SDS011;5573;49.592;8.662;2024-03-02T14:03:49;87.65;;;83.15;;
11039;SDS011;5573;49.592;8.662;2024-03-02T14:06:17;102.25;;;96.97;;
11039;SDS011;5573;49.592;8.662;2024-03-02T14:08:45;90.50;;;85.80;;
11039;SDS011;5573;49.592;8.662;2024-03-02T14:11:14;109.32;;;103.72;;
11039;SDS011;5573;49.592;8.662;2024-03-02T14:13:44;105.43;;;100.03;;
11039;SDS011;5573;49.592;8.662;2024-03-02T14:16:15;106.75;;;101.28;;
11039;SDS011;5573;49.592;8.662;2024-03-02T14:18:43;100.03;;;94.85;;
11039;SDS011;5573;49.592;8.662;2024-03-02T14:21:11;98.30;;;93.25;;
11039;SDS011;5573;49.592;8.662;2024-03-02T14:23:39;105.28;;;99.85;;
11039;SDS011;5573;49.592;8.662;2024-03-02T14:26:07;97.05;;;92.03;;
11039;SDS011;5573;49.592;8.662;2024-03-02T14:28:35;101.13;;;95.90;;
11039;SDS011;5573;49.592;8.662;2024-03-02T14:31:09;98.10;;;93.05;;
11039;SDS011;5573;49.592;8.662;2024-03-02T14:33:37;100.20;;;94.88;;
11039;SDS011;5573;49.592;8.662;2024-03-02T14:36:05;104.68;;;99.30;;
11039;SDS011;5573;49.592;8.662;2024-03-02T14:38:33;102.97;;;97.68;;
11039;SDS011;5573;49.592;8.662;2024-03-02T14:41:00;99.80;;;94.68;;
11039;SDS011;5573;49.592;8.662;2024-03-02T14:43:29;102.40;;;97.15;;
11039;SDS011;5573;49.592;8.662;2024-03-02T14:45:57;91.40;;;86.65;;
11039;SDS011;5573;49.592;8.662;2024-03-02T14:48:27;92.43;;;87.68;;